Time;durP1;ratioP1;P1;durP2;ratioP2;P2;SDS_P1;SDS_P2;PMS_P1;PMS_P2;Temp;Humidity;BMP_temperature;BMP_pressure;BME280_temperature;BME280_humidity;BME280_pressure;Samples;Min_cycle;Max_cycle;Signal;HPM_P1;HPM_P2
2023/12/07 00:03:09;;;;;;;167.50;99.40;;;;;;;;;;103796;1294;545760;-81
2023/12/07 00:06:36;;;;;;;;;;;;;;;;;;;;;
2023/12/07 00:09:49;;;;;;;169.90;103.10;;;;;;;;;;103698;1292;548062;-81
2023/12/07 00:17:27;;;;;;;165.20;102.10;;;;;;;;;;103594;1294;545370;-80
2023/12/07 00:21:30;;;;;;;;;;;;;;;;;;;;;
2023/12/07 00:32:14;;;;;;;180.00;111.30;;;;;;;;;;106150;1291;548004;-81
2023/12/07 00:39:44;;;;;;;162.50;97.40;;;;;;;;;;103755;1288;545908;-80
2023/12/07 00:47:55;;;;;;;;;;;;;;;;;;;;;
2023/12/07 00:51:55;;;;;;;189.90;114.20;;;;;;;;;;103701;1294;548117;-81
2023/12/07 00:54:46;;;;;;;178.50;109.10;;;;;;;;;;103674;1292;547955;-81
2023/12/07 00:58:28;;;;;;;;;;;;;;;;;;;;;
2023/12/07 01:06:23;;;;;;;174.60;109.00;;;;;;;;;;103702;1291;548153;-82
2023/12/07 01:13:32;;;;;;;172.40;104.20;;;;;;;;;;104092;1289;546294;-81
2023/12/07 01:17:13;;;;;;;164.90;100.60;;;;;;;;;;103462;1300;545454;-81
2023/12/07 01:20:34;;;;;;;158.20;98.90;;;;;;;;;;103233;1300;547988;-81
2023/12/07 01:24:30;;;;;;;;;;;;;;;;;;;;;
2023/12/07 01:28:15;;;;;;;164.00;102.20;;;;;;;;;;103456;1296;545465;-81
2023/12/07 01:31:30;;;;;;;162.60;97.60;;;;;;;;;;104128;1285;545882;-80
2023/12/07 01:35:08;;;;;;;165.50;99.90;;;;;;;;;;103614;1292;548382;-81
2023/12/07 01:38:46;;;;;;;164.60;101.30;;;;;;;;;;103706;1304;549327;-80
2023/12/07 01:42:58;;;;;;;173.80;105.50;;;;;;;;;;103317;1297;545257;-82
2023/12/07 01:45:57;;;;;;;175.40;107.70;;;;;;;;;;103624;1291;548797;-80
2023/12/07 01:49:32;;;;;;;179.10;104.60;;;;;;;;;;103633;1304;548096;-81
2023/12/07 01:53:27;;;;;;;;;;;;;;;;;;;;;
2023/12/07 01:56:47;;;;;;;167.90;103.90;;;;;;;;;;104116;1289;545108;-81
2023/12/07 02:00:34;;;;;;;180.80;107.20;;;;;;;;;;103585;1294;548027;-82
2023/12/07 02:04:37;;;;;;;;;;;;;;;;;;;;;
2023/12/07 02:12:00;;;;;;;165.60;96.50;;;;;;;;;;103950;1294;545641;-82
2023/12/07 02:19:45;;;;;;;;;;;;;;;;;;;;;
2023/12/07 02:23:03;;;;;;;175.60;108.00;;;;;;;;;;103586;1292;547813;-81
2023/12/07 02:26:47;;;;;;;;;;;;;;;;;;;;;
2023/12/07 02:34:41;;;;;;;107.20;69.00;;;;;;;;;;103471;1294;547760;-81
2023/12/07 02:37:55;;;;;;;101.20;64.20;;;;;;;;;;103602;1298;545628;-81
2023/12/07 02:41:18;;;;;;;118.60;74.50;;;;;;;;;;104026;1287;547797;-80
2023/12/07 02:45:27;;;;;;;100.30;61.50;;;;;;;;;;103730;1295;547934;-80
2023/12/07 02:48:45;;;;;;;;;;;;;;;;;;;;;
2023/12/07 02:52:26;;;;;;;84.10;55.10;;;;;;;;;;104339;1283;546652;-81
2023/12/07 02:56:03;;;;;;;86.90;57.70;;;;;;;;;;103740;1293;546458;-81
2023/12/07 02:59:49;;;;;;;;;;;;;;;;;;;;;
2023/12/07 03:07:24;;;;;;;;;;;;;;;;;;;;;
2023/12/07 03:10:43;;;;;;;56.20;35.60;;;;;;;;;;103800;1295;548035;-81
2023/12/07 03:14:25;;;;;;;53.10;33.20;;;;;;;;;;103723;1288;546405;-80
2023/12/07 03:21:42;;;;;;;42.90;27.20;;;;;;;;;;103366;1297;548205;-82
2023/12/07 03:25:43;;;;;;;43.70;27.90;;;;;;;;;;103792;1295;545433;-78
2023/12/07 03:28:51;;;;;;;45.50;29.70;;;;;;;;;;103637;1297;549166;-78
2023/12/07 03:32:43;;;;;;;43.50;28.00;;;;;;;;;;103744;1292;546330;-77
2023/12/07 03:36:03;;;;;;;43.60;27.20;;;;;;;;;;103641;1295;545025;-77
2023/12/07 03:39:52;;;;;;;37.70;24.70;;;;;;;;;;103846;1290;544791;-78
2023/12/07 03:43:35;;;;;;;39.60;26.70;;;;;;;;;;103580;1292;545205;-77
2023/12/07 03:47:36;;;;;;;40.10;25.50;;;;;;;;;;103843;1292;545461;-78
2023/12/07 03:50:45;;;;;;;37.90;23.90;;;;;;;;;;103195;1300;545571;-80
2023/12/07 03:54:42;;;;;;;;;;;;;;;;;;;;;
2023/12/07 03:58:00;;;;;;;40.30;25.90;;;;;;;;;;103865;1292;544836;-77
2023/12/07 04:01:43;;;;;;;37.30;23.30;;;;;;;;;;103789;1289;545041;-78
2023/12/07 04:05:22;;;;;;;;;;;;;;;;;;;;;
2023/12/07 04:08:49;;;;;;;35.40;21.40;;;;;;;;;;103781;1292;545965;-78
2023/12/07 04:12:25;;;;;;;37.40;23.50;;;;;;;;;;104124;1289;545903;-77
2023/12/07 04:16:07;;;;;;;32.20;20.10;;;;;;;;;;103776;1291;546076;-78
2023/12/07 04:19:50;;;;;;;32.20;20.00;;;;;;;;;;103679;1294;548004;-77
2023/12/07 04:23:19;;;;;;;31.00;18.70;;;;;;;;;;103965;1290;545023;-78
2023/12/07 04:30:39;;;;;;;30.90;19.40;;;;;;;;;;103824;1292;545245;-77
2023/12/07 04:34:14;;;;;;;24.10;16.40;;;;;;;;;;103705;1291;544912;-78
2023/12/07 04:38:20;;;;;;;27.40;17.20;;;;;;;;;;103708;1295;547971;-78
2023/12/07 04:41:51;;;;;;;25.00;17.30;;;;;;;;;;103630;1295;549529;-78
2023/12/07 04:45:25;;;;;;;22.80;15.50;;;;;;;;;;103739;1292;544974;-77
2023/12/07 04:48:53;;;;;;;21.90;14.30;;;;;;;;;;103386;1306;544749;-77
2023/12/07 04:52:28;;;;;;;21.50;15.40;;;;;;;;;;103896;1292;545545;-79
2023/12/07 04:56:13;;;;;;;21.20;15.10;;;;;;;;;;104024;1286;547988;-79
2023/12/07 05:03:29;;;;;;;19.50;13.10;;;;;;;;;;103616;1297;546555;-77
2023/12/07 05:07:16;;;;;;;;;;;;;;;;;;;;;
2023/12/07 05:11:14;;;;;;;19.60;13.90;;;;;;;;;;103763;1291;544668;-78
2023/12/07 05:14:30;;;;;;;18.10;12.40;;;;;;;;;;103622;1294;545569;-78
2023/12/07 05:18:15;;;;;;;17.40;11.90;;;;;;;;;;103753;1292;545403;-78
2023/12/07 05:22:29;;;;;;;;;;;;;;;;;;;;;
2023/12/07 05:25:44;;;;;;;;;;;;;;;;;;;;;
2023/12/07 05:29:03;;;;;;;16.60;11.10;;;;;;;;;;103579;1297;545215;-79
2023/12/07 05:32:32;;;;;;;15.50;10.40;;;;;;;;;;103647;1295;545590;-78
2023/12/07 05:36:13;;;;;;;16.20;11.40;;;;;;;;;;103477;1293;547792;-79
2023/12/07 05:39:44;;;;;;;16.40;11.80;;;;;;;;;;103641;1291;545289;-78
2023/12/07 05:43:25;;;;;;;16.40;11.50;;;;;;;;;;103733;1289;544830;-80
2023/12/07 05:47:12;;;;;;;15.70;10.90;;;;;;;;;;103538;1299;545550;-79
2023/12/07 05:50:43;;;;;;;15.80;11.70;;;;;;;;;;103344;1295;549123;-82
2023/12/07 05:54:27;;;;;;;18.00;12.50;;;;;;;;;;103757;1292;545183;-79
2023/12/07 05:58:20;;;;;;;;;;;;;;;;;;;;;
2023/12/07 06:01:58;;;;;;;;;;;;;;;;;;;;;
2023/12/07 06:05:13;;;;;;;16.90;12.50;;;;;;;;;;103343;1294;549385;-78
2023/12/07 06:08:42;;;;;;;16.90;12.70;;;;;;;;;;103677;1291;545449;-77
2023/12/07 06:12:34;;;;;;;16.60;13.30;;;;;;;;;;103633;1295;546865;-78
2023/12/07 06:15:57;;;;;;;16.90;12.80;;;;;;;;;;103695;1292;544830;-77
2023/12/07 06:23:46;;;;;;;15.70;11.20;;;;;;;;;;103739;1289;545438;-78
2023/12/07 06:27:38;;;;;;;;;;;;;;;;;;;;;
2023/12/07 06:31:21;;;;;;;16.70;12.70;;;;;;;;;;103839;1292;545615;-81
2023/12/07 06:34:58;;;;;;;15.30;11.50;;;;;;;;;;103635;1293;547959;-77
2023/12/07 06:38:13;;;;;;;17.90;13.10;;;;;;;;;;103635;1295;545570;-78
2023/12/07 06:42:02;;;;;;;;;;;;;;;;;;;;;
2023/12/07 06:45:37;;;;;;;;;;;;;;;;;;;;;
2023/12/07 06:49:25;;;;;;;34.20;21.20;;;;;;;;;;103792;1289;545912;-78
2023/12/07 06:52:50;;;;;;;33.80;19.90;;;;;;;;;;103700;1294;545669;-78
2023/12/07 06:56:22;;;;;;;44.30;26.40;;;;;;;;;;103708;1292;545053;-77
2023/12/07 07:00:09;;;;;;;40.50;24.30;;;;;;;;;;103558;1293;548186;-77
2023/12/07 07:04:27;;;;;;;42.30;28.00;;;;;;;;;;103925;1291;546907;-80
2023/12/07 07:07:11;;;;;;;32.70;22.70;;;;;;;;;;103769;1289;545760;-78
2023/12/07 07:10:53;;;;;;;25.80;19.30;;;;;;;;;;103790;1290;548106;-77
2023/12/07 07:14:27;;;;;;;26.10;20.50;;;;;;;;;;103838;1294;545591;-78
2023/12/07 07:18:24;;;;;;;;;;;;;;;;;;;;;
2023/12/07 07:25:19;;;;;;;21.50;14.80;;;;;;;;;;103733;1291;545052;-78
2023/12/07 07:29:21;;;;;;;17.10;12.70;;;;;;;;;;103554;1291;545436;-77
2023/12/07 07:32:42;;;;;;;15.10;10.80;;;;;;;;;;103659;1294;549019;-77
2023/12/07 07:36:20;;;;;;;15.40;11.00;;;;;;;;;;103562;1289;549065;-78
2023/12/07 07:40:54;;;;;;;14.70;9.70;;;;;;;;;;103535;1295;545157;-78
2023/12/07 07:47:36;;;;;;;14.70;10.30;;;;;;;;;;103647;1292;545089;-77
2023/12/07 07:51:09;;;;;;;16.20;11.30;;;;;;;;;;103714;1292;548272;-79
2023/12/07 07:54:44;;;;;;;18.80;13.00;;;;;;;;;;103584;1292;548174;-78
2023/12/07 07:58:24;;;;;;;14.50;10.60;;;;;;;;;;103642;1291;545426;-78
2023/12/07 08:02:22;;;;;;;13.80;10.10;;;;;;;;;;103550;1291;549184;-78
2023/12/07 08:06:01;;;;;;;;;;;;;;;;;;;;;
2023/12/07 08:09:17;;;;;;;33.50;20.70;;;;;;;;;;103678;1289;546644;-79
2023/12/07 08:12:46;;;;;;;28.60;19.20;;;;;;;;;;103772;1289;545455;-78
2023/12/07 08:16:38;;;;;;;22.40;15.60;;;;;;;;;;103582;1292;545191;-79
2023/12/07 08:20:18;;;;;;;23.10;15.10;;;;;;;;;;103783;1301;545049;-78
2023/12/07 08:23:52;;;;;;;26.30;18.20;;;;;;;;;;103646;1297;547994;-77
2023/12/07 08:27:16;;;;;;;24.80;16.00;;;;;;;;;;103723;1289;545638;-79
2023/12/07 08:31:04;;;;;;;45.80;27.80;;;;;;;;;;103686;1295;545289;-78
2023/12/07 08:34:53;;;;;;;26.60;16.90;;;;;;;;;;103413;1294;547812;-78
2023/12/07 08:38:08;;;;;;;21.10;15.70;;;;;;;;;;103799;1292;544764;-78
2023/12/07 08:41:57;;;;;;;43.50;25.00;;;;;;;;;;103754;1289;544879;-79
2023/12/07 08:45:38;;;;;;;22.90;16.40;;;;;;;;;;103809;1292;544914;-78
2023/12/07 08:49:21;;;;;;;24.20;21.70;;;;;;;;;;103587;1292;548091;-79
2023/12/07 08:52:49;;;;;;;16.90;13.10;;;;;;;;;;103507;1294;549234;-80
2023/12/07 08:56:22;;;;;;;25.70;19.70;;;;;;;;;;103685;1290;546008;-77
2023/12/07 09:00:01;;;;;;;22.80;16.70;;;;;;;;;;103769;1295;550672;-78
2023/12/07 09:03:40;;;;;;;21.80;15.60;;;;;;;;;;103636;1289;545215;-79
2023/12/07 09:10:55;;;;;;;23.40;14.40;;;;;;;;;;103656;1288;549325;-77
2023/12/07 09:14:32;;;;;;;;;;;;;;;;;;;;;
2023/12/07 09:18:01;;;;;;;88.80;55.20;;;;;;;;;;103647;1289;544870;-78
2023/12/07 09:21:38;;;;;;;104.50;56.30;;;;;;;;;;103679;1292;544879;-77
2023/12/07 09:25:16;;;;;;;134.70;70.00;;;;;;;;;;103705;1289;545045;-78
2023/12/07 09:29:02;;;;;;;;;;;;;;;;;;;;;
2023/12/07 09:32:46;;;;;;;37.70;24.00;;;;;;;;;;103637;1298;545687;-78
2023/12/07 09:36:21;;;;;;;41.30;30.50;;;;;;;;;;103362;1297;548052;-78
2023/12/07 09:39:50;;;;;;;42.50;29.80;;;;;;;;;;103421;1298;549282;-77
2023/12/07 09:43:42;;;;;;;40.70;28.40;;;;;;;;;;103717;1290;545007;-78
2023/12/07 09:47:11;;;;;;;32.60;24.10;;;;;;;;;;103680;1295;547919;-78
2023/12/07 09:50:41;;;;;;;28.40;20.60;;;;;;;;;;103644;1300;544969;-76
2023/12/07 09:54:30;;;;;;;;;;;;;;;;;;;;;
2023/12/07 09:57:58;;;;;;;27.40;19.80;;;;;;;;;;103611;1291;547984;-76
2023/12/07 10:01:40;;;;;;;32.30;23.80;;;;;;;;;;103436;1293;547927;-78
2023/12/07 10:05:31;;;;;;;33.40;23.80;;;;;;;;;;103444;1297;548076;-78
2023/12/07 10:08:50;;;;;;;28.10;20.40;;;;;;;;;;103617;1292;548127;-78
2023/12/07 10:12:41;;;;;;;26.30;18.30;;;;;;;;;;103931;1287;545316;-78
2023/12/07 10:16:22;;;;;;;26.70;17.90;;;;;;;;;;103744;1289;545300;-77
2023/12/07 10:20:07;;;;;;;27.70;20.20;;;;;;;;;;103610;1295;549317;-78
2023/12/07 10:23:34;;;;;;;27.40;19.60;;;;;;;;;;103762;1295;545494;-77
2023/12/07 10:27:46;;;;;;;29.70;22.30;;;;;;;;;;103596;1304;545401;-78
2023/12/07 10:30:58;;;;;;;29.00;20.20;;;;;;;;;;103649;1290;545597;-79
2023/12/07 10:34:36;;;;;;;27.30;19.10;;;;;;;;;;103472;1297;548101;-78
2023/12/07 10:38:09;;;;;;;34.00;23.30;;;;;;;;;;103717;1291;545098;-79
2023/12/07 10:41:48;;;;;;;34.90;21.30;;;;;;;;;;103678;1303;545502;-78
2023/12/07 10:45:21;;;;;;;28.60;19.80;;;;;;;;;;103715;1289;545002;-78
2023/12/07 10:49:22;;;;;;;27.00;18.60;;;;;;;;;;103491;1295;545212;-76
2023/12/07 10:53:09;;;;;;;27.90;19.90;;;;;;;;;;103731;1292;545751;-78
2023/12/07 10:56:30;;;;;;;28.70;19.80;;;;;;;;;;103605;1292;545029;-78
2023/12/07 10:59:52;;;;;;;31.10;21.90;;;;;;;;;;103698;1290;545446;-77
2023/12/07 11:03:56;;;;;;;28.60;19.70;;;;;;;;;;103820;1294;545494;-80
2023/12/07 11:07:19;;;;;;;;;;;;;;;;;;;;;
2023/12/07 11:11:20;;;;;;;;;;;;;;;;;;;;;
2023/12/07 11:14:48;;;;;;;36.00;23.20;;;;;;;;;;103591;1294;547553;-77
2023/12/07 11:18:01;;;;;;;34.50;25.20;;;;;;;;;;103738;1292;545874;-77
2023/12/07 11:21:41;;;;;;;28.60;22.20;;;;;;;;;;103640;1294;547965;-77
2023/12/07 11:25:34;;;;;;;30.40;22.30;;;;;;;;;;103670;1295;545284;-75
2023/12/07 11:29:00;;;;;;;28.20;21.40;;;;;;;;;;103637;1292;545526;-77
2023/12/07 11:32:28;;;;;;;32.90;24.30;;;;;;;;;;103766;1295;545592;-76
2023/12/07 11:36:12;;;;;;;45.10;29.60;;;;;;;;;;103624;1292;546583;-79
2023/12/07 11:40:00;;;;;;;39.80;28.10;;;;;;;;;;103665;1294;545576;-81
2023/12/07 11:43:32;;;;;;;62.20;39.80;;;;;;;;;;103710;1289;546604;-78
2023/12/07 11:47:00;;;;;;;40.90;26.60;;;;;;;;;;103762;1295;545033;-80
2023/12/07 11:50:53;;;;;;;115.20;79.90;;;;;;;;;;103726;1290;544877;-81
2023/12/07 11:54:17;;;;;;;93.70;67.20;;;;;;;;;;103686;1289;545702;-79
2023/12/07 11:57:50;;;;;;;44.80;34.00;;;;;;;;;;103745;1292;545444;-76
2023/12/07 12:01:30;;;;;;;42.10;29.90;;;;;;;;;;103715;1291;545011;-77
2023/12/07 12:05:04;;;;;;;50.60;34.40;;;;;;;;;;103687;1289;544753;-78
2023/12/07 12:08:42;;;;;;;44.30;30.10;;;;;;;;;;103738;1288;544995;-80
2023/12/07 12:12:28;;;;;;;215.30;120.10;;;;;;;;;;103514;1292;547870;-80
2023/12/07 12:15:57;;;;;;;320.10;184.80;;;;;;;;;;103803;1289;546080;-76
2023/12/07 12:19:36;;;;;;;68.00;40.90;;;;;;;;;;103734;1289;545520;-78
2023/12/07 12:23:11;;;;;;;42.30;31.10;;;;;;;;;;103615;1305;544864;-76
2023/12/07 12:26:49;;;;;;;31.10;18.80;;;;;;;;;;103714;1289;544956;-79
2023/12/07 12:30:35;;;;;;;23.70;16.30;;;;;;;;;;103521;1291;545353;-80
2023/12/07 12:34:12;;;;;;;54.30;27.00;;;;;;;;;;103667;1292;545684;-79
2023/12/07 12:37:43;;;;;;;51.10;27.60;;;;;;;;;;103670;1294;544974;-79
2023/12/07 12:41:20;;;;;;;41.30;25.80;;;;;;;;;;103763;1289;544982;-75
2023/12/07 12:44:56;;;;;;;31.00;22.10;;;;;;;;;;103806;1288;544806;-75
2023/12/07 12:48:33;;;;;;;50.10;30.00;;;;;;;;;;103526;1293;545124;-77
2023/12/07 12:52:16;;;;;;;30.30;19.50;;;;;;;;;;103712;1292;545402;-79
2023/12/07 12:55:49;;;;;;;18.10;12.90;;;;;;;;;;103706;1292;545595;-77
2023/12/07 12:59:28;;;;;;;22.10;15.10;;;;;;;;;;103550;1292;545507;-78
2023/12/07 13:03:04;;;;;;;19.70;14.50;;;;;;;;;;103781;1302;545668;-78
2023/12/07 13:06:41;;;;;;;19.80;14.70;;;;;;;;;;104208;1295;545137;-74
2023/12/07 13:10:19;;;;;;;20.00;14.70;;;;;;;;;;103772;1291;545554;-76
2023/12/07 13:14:06;;;;;;;24.20;16.50;;;;;;;;;;103744;1292;548145;-79
2023/12/07 13:17:42;;;;;;;28.30;20.40;;;;;;;;;;103675;1291;547766;-79
2023/12/07 13:21:11;;;;;;;27.90;19.60;;;;;;;;;;103676;1290;545337;-75
2023/12/07 13:24:52;;;;;;;27.10;19.60;;;;;;;;;;103703;1292;545670;-76
2023/12/07 13:28:27;;;;;;;32.10;21.00;;;;;;;;;;103729;1292;545326;-75
2023/12/07 13:32:04;;;;;;;31.10;21.90;;;;;;;;;;103977;1297;545726;-76
2023/12/07 13:35:49;;;;;;;30.30;21.40;;;;;;;;;;103690;1293;548148;-76
2023/12/07 13:39:20;;;;;;;28.30;18.90;;;;;;;;;;103919;1289;544947;-75
2023/12/07 13:42:57;;;;;;;31.10;20.00;;;;;;;;;;103761;1295;545031;-75
2023/12/07 13:46:33;;;;;;;33.30;22.20;;;;;;;;;;104000;1289;544939;-75
2023/12/07 13:50:11;;;;;;;33.10;22.70;;;;;;;;;;103920;1289;545016;-77
2023/12/07 13:53:49;;;;;;;34.20;25.50;;;;;;;;;;103845;1292;545234;-76
2023/12/07 13:57:26;;;;;;;38.50;26.60;;;;;;;;;;103791;1291;546054;-75
2023/12/07 14:01:03;;;;;;;31.90;22.40;;;;;;;;;;103816;1289;544820;-76
2023/12/07 14:04:41;;;;;;;29.40;21.20;;;;;;;;;;103979;1292;545619;-75
2023/12/07 14:08:19;;;;;;;32.10;22.00;;;;;;;;;;103715;1291;544887;-75
2023/12/07 14:11:56;;;;;;;34.80;24.50;;;;;;;;;;103800;1292;544761;-75
2023/12/07 14:15:35;;;;;;;33.30;23.80;;;;;;;;;;103766;1295;545752;-77
2023/12/07 14:19:09;;;;;;;29.70;20.90;;;;;;;;;;103990;1290;545136;-76
2023/12/07 14:22:48;;;;;;;29.80;20.40;;;;;;;;;;103797;1289;545014;-77
2023/12/07 14:26:25;;;;;;;31.40;21.70;;;;;;;;;;104031;1289;544985;-78
2023/12/07 14:30:03;;;;;;;31.60;21.60;;;;;;;;;;103760;1289;545055;-75
2023/12/07 14:33:40;;;;;;;31.00;21.80;;;;;;;;;;104521;1287;544610;-76
2023/12/07 14:37:18;;;;;;;29.70;21.30;;;;;;;;;;103744;1295;544856;-77
2023/12/07 14:40:56;;;;;;;35.70;24.90;;;;;;;;;;103711;1292;545174;-75
2023/12/07 14:44:36;;;;;;;38.30;26.80;;;;;;;;;;103726;1293;545085;-75
2023/12/07 14:48:10;;;;;;;39.40;27.80;;;;;;;;;;103641;1292;546194;-78
2023/12/07 14:52:00;;;;;;;39.50;28.60;;;;;;;;;;103320;1307;547772;-77
2023/12/07 14:55:26;;;;;;;40.30;28.20;;;;;;;;;;103678;1291;545059;-76
2023/12/07 14:59:03;;;;;;;34.60;24.70;;;;;;;;;;103723;1291;544974;-78
2023/12/07 15:02:40;;;;;;;33.10;24.20;;;;;;;;;;103439;1298;545053;-76
2023/12/07 15:06:18;;;;;;;36.20;27.00;;;;;;;;;;103885;1289;546038;-77
2023/12/07 15:09:57;;;;;;;40.50;29.80;;;;;;;;;;103417;1297;544769;-77
2023/12/07 15:13:35;;;;;;;39.00;28.10;;;;;;;;;;103676;1291;545529;-75
2023/12/07 15:17:16;;;;;;;37.60;27.90;;;;;;;;;;103413;1294;545530;-77
2023/12/07 15:20:48;;;;;;;34.00;24.80;;;;;;;;;;103665;1291;545151;-77
2023/12/07 15:24:26;;;;;;;35.90;27.20;;;;;;;;;;103780;1292;544879;-75
2023/12/07 15:28:16;;;;;;;;;;;;;;;;;;;;;
2023/12/07 15:31:40;;;;;;;50.90;30.30;;;;;;;;;;104175;1292;545058;-78
2023/12/07 15:35:17;;;;;;;42.00;28.30;;;;;;;;;;103788;1295;545698;-74
2023/12/07 15:38:56;;;;;;;45.10;30.00;;;;;;;;;;103981;1288;544809;-76
2023/12/07 15:42:39;;;;;;;50.90;30.00;;;;;;;;;;103685;1295;548021;-78
2023/12/07 15:46:12;;;;;;;57.50;34.90;;;;;;;;;;103887;1291;544972;-79
2023/12/07 15:49:52;;;;;;;66.20;35.90;;;;;;;;;;103624;1293;549254;-78
2023/12/07 15:53:24;;;;;;;65.90;35.10;;;;;;;;;;103949;1289;545036;-75
2023/12/07 15:57:02;;;;;;;59.30;35.70;;;;;;;;;;103821;1291;545607;-77
2023/12/07 16:00:44;;;;;;;58.60;34.80;;;;;;;;;;103872;1291;546315;-77
2023/12/07 16:04:18;;;;;;;63.50;39.70;;;;;;;;;;103743;1291;545919;-76
2023/12/07 16:07:59;;;;;;;63.30;40.10;;;;;;;;;;103922;1291;547831;-78
2023/12/07 16:11:32;;;;;;;88.00;53.80;;;;;;;;;;103513;1297;545204;-78
2023/12/07 16:15:12;;;;;;;94.70;61.70;;;;;;;;;;103607;1293;546049;-77
2023/12/07 16:18:48;;;;;;;99.60;65.90;;;;;;;;;;103688;1292;545427;-75
2023/12/07 16:22:27;;;;;;;103.20;67.70;;;;;;;;;;103737;1295;544772;-75
2023/12/07 16:26:03;;;;;;;100.40;64.70;;;;;;;;;;103612;1294;545007;-79
2023/12/07 16:29:39;;;;;;;86.40;59.20;;;;;;;;;;103822;1291;546172;-78
2023/12/07 16:33:17;;;;;;;92.90;62.30;;;;;;;;;;103765;1291;544991;-79
2023/12/07 16:36:59;;;;;;;94.90;63.90;;;;;;;;;;103550;1294;544793;-79
2023/12/07 16:40:32;;;;;;;92.60;64.60;;;;;;;;;;103711;1291;544894;-78
2023/12/07 16:44:11;;;;;;;81.30;55.20;;;;;;;;;;104033;1286;545129;-78
2023/12/07 16:47:53;;;;;;;78.50;51.30;;;;;;;;;;103640;1292;549491;-74
2023/12/07 16:51:29;;;;;;;76.70;50.60;;;;;;;;;;103677;1294;545481;-79
2023/12/07 16:55:00;;;;;;;81.30;54.00;;;;;;;;;;103990;1292;547566;-79
2023/12/07 16:58:39;;;;;;;117.00;73.50;;;;;;;;;;103869;1291;545530;-78
2023/12/07 17:02:19;;;;;;;122.00;70.30;;;;;;;;;;103874;1292;545026;-77
2023/12/07 17:05:55;;;;;;;108.40;65.60;;;;;;;;;;103776;1292;545417;-78
2023/12/07 17:09:38;;;;;;;113.10;69.20;;;;;;;;;;103718;1291;548133;-76
2023/12/07 17:13:16;;;;;;;118.70;72.40;;;;;;;;;;103665;1292;545686;-75
2023/12/07 17:16:52;;;;;;;134.50;80.90;;;;;;;;;;103929;1292;545943;-76
2023/12/07 17:20:23;;;;;;;143.60;81.60;;;;;;;;;;103818;1298;545928;-75
2023/12/07 17:24:06;;;;;;;125.70;74.40;;;;;;;;;;103934;1289;545262;-76
2023/12/07 17:27:58;;;;;;;141.00;82.70;;;;;;;;;;103583;1297;545525;-75
2023/12/07 17:31:28;;;;;;;161.40;93.90;;;;;;;;;;103608;1292;545919;-75
2023/12/07 17:34:53;;;;;;;157.80;93.90;;;;;;;;;;104380;1283;545062;-75
2023/12/07 17:38:40;;;;;;;154.80;90.00;;;;;;;;;;103663;1291;545246;-76
2023/12/07 17:42:10;;;;;;;156.30;88.70;;;;;;;;;;104092;1293;544958;-77
2023/12/07 17:45:46;;;;;;;135.40;76.50;;;;;;;;;;103728;1291;545050;-78
2023/12/07 17:49:52;;;;;;;123.20;75.40;;;;;;;;;;103455;1297;547983;-76
2023/12/07 17:53:04;;;;;;;119.60;73.40;;;;;;;;;;103682;1290;547962;-76
2023/12/07 17:56:40;;;;;;;110.20;68.30;;;;;;;;;;103789;1289;545957;-75
2023/12/07 18:00:19;;;;;;;100.30;62.30;;;;;;;;;;103820;1291;546075;-76
2023/12/07 18:03:57;;;;;;;106.10;63.70;;;;;;;;;;103968;1289;546097;-79
2023/12/07 18:07:34;;;;;;;109.20;66.80;;;;;;;;;;103801;1291;545681;-75
2023/12/07 18:11:08;;;;;;;110.10;70.60;;;;;;;;;;103776;1291;545171;-77
2023/12/07 18:14:51;;;;;;;111.70;69.10;;;;;;;;;;103789;1292;545722;-77
2023/12/07 18:18:23;;;;;;;104.10;64.30;;;;;;;;;;103962;1291;545776;-77
2023/12/07 18:22:20;;;;;;;95.90;60.30;;;;;;;;;;103685;1296;547775;-76
2023/12/07 18:25:42;;;;;;;97.90;63.10;;;;;;;;;;103484;1296;545256;-77
2023/12/07 18:29:15;;;;;;;95.10;63.70;;;;;;;;;;103754;1291;546689;-76
2023/12/07 18:33:12;;;;;;;100.70;63.60;;;;;;;;;;103762;1289;545971;-76
2023/12/07 18:36:41;;;;;;;90.00;58.20;;;;;;;;;;103829;1291;545050;-75
2023/12/07 18:40:28;;;;;;;89.80;59.20;;;;;;;;;;103968;1293;548503;-75
2023/12/07 18:43:43;;;;;;;97.10;67.50;;;;;;;;;;104081;1288;544990;-77
2023/12/07 18:47:44;;;;;;;115.30;77.80;;;;;;;;;;103764;1297;548505;-80
2023/12/07 18:51:29;;;;;;;98.70;64.90;;;;;;;;;;103531;1295;545398;-76
2023/12/07 18:55:00;;;;;;;91.80;60.80;;;;;;;;;;103741;1292;545440;-76
2023/12/07 18:58:35;;;;;;;105.20;70.70;;;;;;;;;;104020;1294;547883;-79
2023/12/07 19:02:19;;;;;;;111.20;74.40;;;;;;;;;;103801;1291;545231;-80
2023/12/07 19:05:35;;;;;;;116.00;74.20;;;;;;;;;;103654;1292;546292;-76
2023/12/07 19:09:42;;;;;;;114.70;72.10;;;;;;;;;;103714;1296;547773;-76
2023/12/07 19:12:51;;;;;;;127.70;75.80;;;;;;;;;;103610;1292;548084;-80
2023/12/07 19:16:29;;;;;;;133.80;83.60;;;;;;;;;;103725;1291;547750;-80
2023/12/07 19:20:00;;;;;;;130.80;82.40;;;;;;;;;;103858;1291;545429;-76
2023/12/07 19:23:42;;;;;;;119.50;76.30;;;;;;;;;;103767;1292;544763;-76
2023/12/07 19:27:30;;;;;;;111.20;69.80;;;;;;;;;;103717;1294;549276;-80
2023/12/07 19:31:12;;;;;;;118.20;72.40;;;;;;;;;;103939;1295;545146;-77
2023/12/07 19:34:32;;;;;;;169.80;97.80;;;;;;;;;;103677;1292;544763;-75
2023/12/07 19:38:31;;;;;;;128.50;82.10;;;;;;;;;;103741;1291;546877;-79
2023/12/07 19:42:27;;;;;;;123.70;72.40;;;;;;;;;;103461;1302;545764;-84
2023/12/07 19:45:22;;;;;;;130.20;74.10;;;;;;;;;;103743;1292;544966;-79
2023/12/07 19:49:08;;;;;;;142.00;81.10;;;;;;;;;;103441;1295;547991;-75
2023/12/07 19:52:41;;;;;;;141.90;83.80;;;;;;;;;;103786;1295;545001;-77
2023/12/07 19:56:41;;;;;;;128.80;75.00;;;;;;;;;;103614;1294;545452;-75
2023/12/07 19:59:59;;;;;;;123.70;71.50;;;;;;;;;;103545;1295;545226;-80
2023/12/07 20:03:32;;;;;;;127.90;72.90;;;;;;;;;;103721;1289;546181;-76
2023/12/07 20:07:13;;;;;;;141.20;84.60;;;;;;;;;;103791;1292;546190;-79
2023/12/07 20:10:40;;;;;;;155.30;91.80;;;;;;;;;;103735;1299;545359;-79
2023/12/07 20:14:30;;;;;;;139.00;78.50;;;;;;;;;;104449;1283;545167;-75
2023/12/07 20:18:18;;;;;;;107.30;63.50;;;;;;;;;;103488;1292;547045;-75
2023/12/07 20:21:43;;;;;;;94.90;58.10;;;;;;;;;;103754;1295;545805;-74
2023/12/07 20:25:23;;;;;;;87.50;54.90;;;;;;;;;;103657;1292;545483;-81
2023/12/07 20:28:58;;;;;;;89.60;56.50;;;;;;;;;;103656;1296;545245;-78
2023/12/07 20:32:33;;;;;;;81.70;50.60;;;;;;;;;;103766;1296;544753;-76
2023/12/07 20:36:16;;;;;;;75.60;46.10;;;;;;;;;;104244;1290;545415;-80
2023/12/07 20:40:07;;;;;;;97.40;56.30;;;;;;;;;;103600;1296;545629;-75
2023/12/07 20:43:35;;;;;;;;;;;;;;;;;;;;;
2023/12/07 20:47:02;;;;;;;98.80;57.40;;;;;;;;;;104158;1288;546276;-75
2023/12/07 20:50:39;;;;;;;79.50;47.30;;;;;;;;;;103680;1291;545017;-78
2023/12/07 20:54:28;;;;;;;79.90;47.70;;;;;;;;;;103431;1293;549196;-78
2023/12/07 20:57:53;;;;;;;82.50;51.00;;;;;;;;;;103635;1291;544891;-76
2023/12/07 21:01:40;;;;;;;;;;;;;;;;;;;;;
2023/12/07 21:05:13;;;;;;;100.20;60.00;;;;;;;;;;103756;1289;548154;-80
2023/12/07 21:08:47;;;;;;;90.50;54.70;;;;;;;;;;104402;1283;545400;-78
2023/12/07 21:12:28;;;;;;;83.90;50.50;;;;;;;;;;104130;1298;545006;-75
2023/12/07 21:16:04;;;;;;;83.70;52.60;;;;;;;;;;103623;1292;549179;-74
2023/12/07 21:19:37;;;;;;;89.80;55.80;;;;;;;;;;103659;1291;545486;-79
2023/12/07 21:23:20;;;;;;;91.30;58.80;;;;;;;;;;103614;1298;548115;-75
2023/12/07 21:27:11;;;;;;;88.30;55.40;;;;;;;;;;103752;1290;545824;-75
2023/12/07 21:30:32;;;;;;;83.50;51.40;;;;;;;;;;103760;1289;545577;-76
2023/12/07 21:34:07;;;;;;;80.10;52.50;;;;;;;;;;103746;1298;545187;-74
2023/12/07 21:38:11;;;;;;;83.50;53.90;;;;;;;;;;103596;1294;547772;-78
2023/12/07 21:41:34;;;;;;;;;;;;;;;;;;;;;
2023/12/07 21:44:55;;;;;;;83.90;51.10;;;;;;;;;;103940;1289;545285;-75
2023/12/07 21:48:38;;;;;;;81.70;51.10;;;;;;;;;;103632;1296;546640;-76
2023/12/07 21:52:32;;;;;;;;;;;;;;;;;;;;;
2023/12/07 21:55:54;;;;;;;86.70;55.50;;;;;;;;;;103868;1292;544784;-74
2023/12/07 21:59:30;;;;;;;95.90;60.00;;;;;;;;;;103720;1292;544988;-75
2023/12/07 22:03:31;;;;;;;84.60;53.20;;;;;;;;;;103655;1292;547580;-75
2023/12/07 22:06:43;;;;;;;82.90;50.70;;;;;;;;;;103954;1286;544865;-78
2023/12/07 22:10:28;;;;;;;84.70;54.70;;;;;;;;;;103722;1293;545651;-75
2023/12/07 22:14:00;;;;;;;89.00;56.90;;;;;;;;;;103652;1292;545410;-79
2023/12/07 22:17:36;;;;;;;89.50;58.30;;;;;;;;;;104270;1282;544740;-75
2023/12/07 22:21:19;;;;;;;90.70;55.60;;;;;;;;;;103883;1292;544900;-80
2023/12/07 22:24:50;;;;;;;92.30;56.40;;;;;;;;;;104121;1288;545226;-77